Time;durP1;ratioP1;P1;durP2;ratioP2;P2;SDS_P1;SDS_P2;PMS_P1;PMS_P2;Temp;Humidity;BMP_temperature;BMP_pressure;BME280_temperature;BME280_humidity;BME280_pressure;Samples;Min_cycle;Max_cycle;Signal;HPM_P1;HPM_P2
2023/04/21 00:02:14;;;;;;;31.55;28.15;;;9.20;99.90;;;;;;7366749;19;20018;-62
2023/04/21 00:04:44;;;;;;;31.50;27.48;;;9.20;99.90;;;;;;7362583;19;20085;-63
2023/04/21 00:07:13;;;;;;;32.97;27.63;;;9.20;99.90;;;;;;7369195;19;20018;-63
2023/04/21 00:09:40;;;;;;;31.90;27.25;;;9.20;99.90;;;;;;7361073;19;20043;-65
2023/04/21 00:12:07;;;;;;;36.90;28.35;;;9.20;99.90;;;;;;7365949;19;20041;-65
2023/04/21 00:14:33;;;;;;;31.90;26.13;;;9.20;99.90;;;;;;7365720;19;20378;-66
2023/04/21 00:16:59;;;;;;;30.13;24.70;;;9.20;99.90;;;;;;7367678;19;20770;-65
2023/04/21 00:19:27;;;;;;;28.90;24.42;;;9.20;99.90;;;;;;7374209;19;20025;-66
2023/04/21 00:21:57;;;;;;;29.33;23.05;;;9.20;99.90;;;;;;7372004;19;20022;-65
2023/04/21 00:24:24;;;;;;;27.50;24.02;;;9.20;99.90;;;;;;7371653;19;20022;-65
2023/04/21 00:26:51;;;;;;;27.13;23.17;;;9.20;99.90;;;;;;7367508;19;20019;-65
2023/04/21 00:29:18;;;;;;;28.52;23.48;;;9.20;99.90;;;;;;7368274;19;20105;-64
2023/04/21 00:31:44;;;;;;;30.25;24.05;;;9.20;99.90;;;;;;7373178;19;20382;-63
2023/04/21 00:34:10;;;;;;;28.30;23.95;;;9.10;99.90;;;;;;7375798;19;20024;-63
2023/04/21 00:36:36;;;;;;;29.08;22.10;;;9.10;99.90;;;;;;7371463;19;20022;-65
2023/04/21 00:39:06;;;;;;;25.05;21.23;;;9.10;99.90;;;;;;7373753;19;20026;-65
2023/04/21 00:41:35;;;;;;;27.00;23.33;;;9.00;99.90;;;;;;7371684;19;20086;-65
2023/04/21 00:44:09;;;;;;;26.90;22.42;;;9.00;99.90;;;;;;7371284;19;20022;-65
2023/04/21 00:46:37;;;;;;;29.27;22.42;;;9.00;99.90;;;;;;7373588;19;20085;-62
2023/04/21 00:49:06;;;;;;;26.13;22.92;;;9.00;99.90;;;;;;7370866;19;20026;-65
2023/04/21 00:51:35;;;;;;;28.15;20.08;;;8.90;99.90;;;;;;7371727;19;20773;-65
2023/04/21 00:54:04;;;;;;;28.83;19.98;;;8.90;99.90;;;;;;7372118;19;20018;-65
2023/04/21 00:56:41;;;;;;;28.48;21.25;;;8.90;99.90;;;;;;7372585;19;20019;-62
2023/04/21 00:59:07;;;;;;;23.33;19.63;;;8.80;99.90;;;;;;7373379;19;20022;-63
2023/04/21 01:01:35;;;;;;;24.88;20.77;;;8.80;99.90;;;;;;7369172;19;20814;-64
2023/04/21 01:04:09;;;;;;;26.02;19.75;;;8.80;99.90;;;;;;7373833;19;20488;-64
2023/04/21 01:06:42;;;;;;;24.58;20.52;;;8.80;99.90;;;;;;7366422;19;21313;-64
2023/04/21 01:09:11;;;;;;;26.50;20.83;;;8.80;99.90;;;;;;7370988;19;20034;-64
2023/04/21 01:11:38;;;;;;;21.27;18.80;;;8.80;99.90;;;;;;7372757;19;20082;-64
2023/04/21 01:14:07;;;;;;;23.83;20.23;;;8.80;99.90;;;;;;7372821;19;20039;-64
2023/04/21 01:16:34;;;;;;;27.05;19.98;;;8.80;99.90;;;;;;7373158;19;20022;-63
2023/04/21 01:19:01;;;;;;;28.83;21.45;;;8.80;99.90;;;;;;7373568;19;20022;-64
2023/04/21 01:21:27;;;;;;;22.85;18.52;;;8.80;99.90;;;;;;7373125;19;20086;-64
2023/04/21 01:23:54;;;;;;;20.73;18.52;;;8.80;99.90;;;;;;7372324;19;20025;-64
2023/04/21 01:26:21;;;;;;;21.88;18.52;;;8.80;99.90;;;;;;7374031;19;20591;-64
2023/04/21 01:28:49;;;;;;;24.00;15.88;;;8.80;99.90;;;;;;7364205;19;20022;-64
2023/04/21 01:31:17;;;;;;;24.05;18.63;;;8.80;99.90;;;;;;7371159;19;20848;-64
2023/04/21 01:33:52;;;;;;;21.63;17.20;;;8.80;99.90;;;;;;7367495;19;20043;-63
2023/04/21 01:36:18;;;;;;;22.17;18.17;;;8.80;99.90;;;;;;7366894;19;20011;-66
2023/04/21 01:38:44;;;;;;;24.77;18.33;;;8.80;99.90;;;;;;7365447;19;20053;-65
2023/04/21 01:41:11;;;;;;;22.25;18.10;;;8.80;99.90;;;;;;7364724;19;20087;-64
2023/04/21 01:43:38;;;;;;;20.80;16.13;;;8.80;99.90;;;;;;7365882;19;20886;-64
2023/04/21 01:46:05;;;;;;;25.42;18.52;;;8.80;99.90;;;;;;7368557;19;20112;-63
2023/04/21 01:48:31;;;;;;;21.23;15.85;;;8.80;99.90;;;;;;7366848;19;20830;-63
2023/04/21 01:50:58;;;;;;;22.73;18.10;;;8.80;99.90;;;;;;7371566;19;20022;-64
2023/04/21 01:53:25;;;;;;;22.67;17.95;;;8.80;99.90;;;;;;7367863;19;20026;-63
2023/04/21 01:55:52;;;;;;;23.63;17.27;;;8.80;99.90;;;;;;7369920;19;20026;-64
2023/04/21 01:58:19;;;;;;;20.35;14.38;;;8.80;99.90;;;;;;7367087;19;20022;-64
2023/04/21 02:00:45;;;;;;;20.30;17.65;;;8.70;99.90;;;;;;7370567;19;20050;-63
2023/04/21 02:03:11;;;;;;;23.35;17.42;;;8.70;99.90;;;;;;7368474;19;20068;-64
2023/04/21 02:05:37;;;;;;;24.25;16.17;;;8.70;99.90;;;;;;7368994;19;20082;-64
2023/04/21 02:08:04;;;;;;;21.35;16.27;;;8.70;99.90;;;;;;7364902;19;20058;-64
2023/04/21 02:10:30;;;;;;;23.45;16.65;;;8.70;99.90;;;;;;7354458;19;20031;-63
2023/04/21 02:12:56;;;;;;;22.73;17.35;;;8.70;99.90;;;;;;7366048;19;20508;-63
2023/04/21 02:15:23;;;;;;;24.15;17.48;;;8.70;99.90;;;;;;7365701;19;20030;-65
2023/04/21 02:17:49;;;;;;;20.35;16.88;;;8.70;99.90;;;;;;7370917;19;20018;-64
2023/04/21 02:20:15;;;;;;;20.75;16.48;;;8.60;99.90;;;;;;7370641;19;20042;-66
2023/04/21 02:22:42;;;;;;;19.52;16.92;;;8.70;99.90;;;;;;7373250;19;20037;-67
2023/04/21 02:25:09;;;;;;;23.88;17.23;;;8.60;99.90;;;;;;7368972;19;20494;-65
2023/04/21 02:27:35;;;;;;;23.38;17.50;;;8.60;99.90;;;;;;7370098;19;20056;-66
2023/04/21 02:30:03;;;;;;;24.50;17.13;;;8.60;99.90;;;;;;7368080;19;20043;-66
2023/04/21 02:32:30;;;;;;;24.45;16.98;;;8.60;99.90;;;;;;7366908;19;20025;-66
2023/04/21 02:34:56;;;;;;;20.20;16.40;;;8.60;99.90;;;;;;7374310;19;20022;-67
2023/04/21 02:37:23;;;;;;;21.40;17.48;;;8.60;99.90;;;;;;7368039;19;20042;-66
2023/04/21 02:39:52;;;;;;;24.50;16.95;;;8.60;99.90;;;;;;7366681;19;20015;-65
2023/04/21 02:42:19;;;;;;;21.67;17.45;;;8.60;99.90;;;;;;7359512;19;20744;-66
2023/04/21 02:44:47;;;;;;;20.55;17.08;;;8.60;99.90;;;;;;7355856;19;20018;-64
2023/04/21 02:47:16;;;;;;;23.88;17.65;;;8.60;99.90;;;;;;7362147;19;20049;-63
2023/04/21 02:49:43;;;;;;;21.45;17.35;;;8.50;99.90;;;;;;7360317;19;20662;-64
2023/04/21 02:52:11;;;;;;;21.00;16.48;;;8.50;99.90;;;;;;7367114;19;20540;-62
2023/04/21 02:54:38;;;;;;;21.77;16.33;;;8.50;99.90;;;;;;7367549;19;20358;-63
2023/04/21 02:57:04;;;;;;;19.35;16.13;;;8.60;99.90;;;;;;7367231;19;20026;-62
2023/04/21 02:59:33;;;;;;;21.15;15.85;;;8.60;99.90;;;;;;7368427;19;20015;-62
2023/04/21 03:02:00;;;;;;;22.67;16.45;;;8.60;99.90;;;;;;7371335;19;20015;-62
2023/04/21 03:04:26;;;;;;;20.45;18.13;;;8.60;99.90;;;;;;7366784;19;20010;-62
2023/04/21 03:06:53;;;;;;;19.63;15.25;;;8.70;99.90;;;;;;7367187;19;20143;-63
2023/04/21 03:09:20;;;;;;;18.38;15.85;;;8.70;99.90;;;;;;7367020;19;20078;-62
2023/04/21 03:11:46;;;;;;;18.15;16.00;;;8.60;99.90;;;;;;7368029;19;21087;-62
2023/04/21 03:14:13;;;;;;;21.80;16.48;;;8.60;99.90;;;;;;7366083;19;20055;-62
2023/04/21 03:16:39;;;;;;;19.33;16.40;;;8.60;99.90;;;;;;7368384;19;20454;-63
2023/04/21 03:19:05;;;;;;;21.67;16.52;;;8.60;99.90;;;;;;7357973;19;20046;-65
2023/04/21 03:21:32;;;;;;;23.10;16.02;;;8.60;99.90;;;;;;7357213;19;20018;-65
2023/04/21 03:23:58;;;;;;;22.17;16.70;;;8.50;99.90;;;;;;7361023;19;20597;-65
2023/04/21 03:26:25;;;;;;;20.77;16.45;;;8.50;99.90;;;;;;7367639;19;21022;-66
2023/04/21 03:28:51;;;;;;;17.85;14.23;;;8.60;99.90;;;;;;7368346;19;20022;-66
2023/04/21 03:31:19;;;;;;;23.75;17.00;;;8.50;99.90;;;;;;7369001;19;20042;-66
2023/04/21 03:33:45;;;;;;;21.48;16.83;;;8.60;99.90;;;;;;7367721;19;20023;-64
2023/04/21 03:36:11;;;;;;;16.52;14.57;;;8.60;99.90;;;;;;7367491;19;20029;-62
2023/04/21 03:38:38;;;;;;;20.38;15.77;;;8.60;99.90;;;;;;7364415;19;20382;-62
2023/04/21 03:41:05;;;;;;;23.08;15.70;;;8.60;99.90;;;;;;7369657;19;20022;-62
2023/04/21 03:43:35;;;;;;;18.58;15.23;;;8.60;99.90;;;;;;7368358;19;20014;-63
2023/04/21 03:46:02;;;;;;;24.55;16.30;;;8.60;99.90;;;;;;7370192;19;20600;-63
2023/04/21 03:48:28;;;;;;;17.73;14.10;;;8.70;99.90;;;;;;7366240;19;20015;-65
2023/04/21 03:50:55;;;;;;;17.15;15.05;;;8.70;99.90;;;;;;7369347;19;20929;-65
2023/04/21 03:53:21;;;;;;;23.75;15.52;;;8.70;99.90;;;;;;7371452;19;20025;-65
2023/04/21 03:55:49;;;;;;;18.38;14.32;;;8.70;99.90;;;;;;7375651;19;20019;-65
2023/04/21 03:58:16;;;;;;;19.02;13.05;;;8.70;99.90;;;;;;7364155;19;20887;-65
2023/04/21 04:00:43;;;;;;;19.80;15.85;;;8.80;99.90;;;;;;7365213;19;20808;-65
2023/04/21 04:03:09;;;;;;;18.35;16.05;;;8.70;99.90;;;;;;7365855;19;20022;-65
2023/04/21 04:05:36;;;;;;;20.67;15.07;;;8.70;99.90;;;;;;7377343;19;20861;-65
2023/04/21 04:08:02;;;;;;;22.67;15.98;;;8.70;99.90;;;;;;7374302;19;20607;-65
2023/04/21 04:10:28;;;;;;;21.38;15.75;;;8.70;99.90;;;;;;7373018;19;20018;-65
2023/04/21 04:12:55;;;;;;;17.25;15.48;;;8.70;99.90;;;;;;7375527;19;20021;-65
2023/04/21 04:15:21;;;;;;;20.95;15.20;;;8.70;99.90;;;;;;7374476;19;20589;-65
2023/04/21 04:17:47;;;;;;;20.70;15.02;;;8.70;99.90;;;;;;7375018;19;20025;-65
2023/04/21 04:20:14;;;;;;;19.65;15.23;;;8.70;99.90;;;;;;7374550;19;20022;-62
2023/04/21 04:22:40;;;;;;;19.35;16.00;;;8.60;99.90;;;;;;7371617;19;21073;-63
2023/04/21 04:25:07;;;;;;;18.25;16.13;;;8.70;99.90;;;;;;7377992;19;20014;-65
2023/04/21 04:27:34;;;;;;;23.27;15.70;;;8.60;99.90;;;;;;7368070;19;20019;-65
2023/04/21 04:30:00;;;;;;;21.40;14.70;;;8.60;99.90;;;;;;7370543;19;20037;-65
2023/04/21 04:32:27;;;;;;;21.88;15.45;;;8.60;99.90;;;;;;7363706;19;20793;-62
2023/04/21 04:34:55;;;;;;;21.95;16.73;;;8.60;99.90;;;;;;7361950;19;20014;-62
2023/04/21 04:37:21;;;;;;;18.77;16.38;;;8.50;99.90;;;;;;7365179;19;20458;-62
2023/04/21 04:39:51;;;;;;;20.10;15.13;;;8.50;99.90;;;;;;7374901;19;20068;-62
2023/04/21 04:42:19;;;;;;;22.65;15.32;;;8.40;99.90;;;;;;7374811;19;20750;-65
2023/04/21 04:44:46;;;;;;;20.88;15.45;;;8.40;99.90;;;;;;7373315;19;20010;-65
2023/04/21 04:47:12;;;;;;;21.80;16.08;;;8.40;99.90;;;;;;7376092;19;20019;-65
2023/04/21 04:49:39;;;;;;;27.50;16.83;;;8.40;99.90;;;;;;7371234;19;20048;-65
2023/04/21 04:52:08;;;;;;;21.58;16.52;;;8.40;99.90;;;;;;7378061;19;20494;-65
2023/04/21 04:54:36;;;;;;;20.25;15.73;;;8.40;99.90;;;;;;7375871;19;20026;-65
2023/04/21 04:57:02;;;;;;;21.08;15.68;;;8.40;99.90;;;;;;7377096;19;20019;-62
2023/04/21 04:59:30;;;;;;;22.63;16.88;;;8.40;99.90;;;;;;7376609;19;20018;-64
2023/04/21 05:01:56;;;;;;;22.42;15.63;;;8.50;99.90;;;;;;7374851;19;20036;-63
2023/04/21 05:04:42;;;;;;;21.20;15.43;;;8.50;99.90;;;;;;7374023;19;20019;-63
2023/04/21 05:07:28;;;;;;;22.27;15.90;;;8.50;99.90;;;;;;7374462;19;20018;-63
2023/04/21 05:09:55;;;;;;;20.15;15.63;;;8.60;99.90;;;;;;7370346;19;20395;-63
2023/04/21 05:12:21;;;;;;;21.20;15.60;;;8.60;99.90;;;;;;7371630;19;20422;-63
2023/04/21 05:14:47;;;;;;;24.15;15.20;;;8.60;99.90;;;;;;7376107;19;20014;-63
2023/04/21 05:17:13;;;;;;;21.50;17.00;;;8.60;99.90;;;;;;7370602;19;20025;-63
2023/04/21 05:19:39;;;;;;;19.65;15.77;;;8.70;99.90;;;;;;7366881;19;20030;-63
2023/04/21 05:22:06;;;;;;;19.25;14.73;;;8.70;99.90;;;;;;7361836;19;20018;-63
2023/04/21 05:24:33;;;;;;;19.85;14.80;;;8.70;99.90;;;;;;7359751;19;20022;-63
2023/04/21 05:27:00;;;;;;;16.90;14.80;;;8.70;99.90;;;;;;7370861;19;20045;-63
2023/04/21 05:29:26;;;;;;;19.42;15.35;;;8.80;99.90;;;;;;7371747;19;20027;-63
2023/04/21 05:31:52;;;;;;;17.08;14.73;;;8.80;99.90;;;;;;7371854;19;20105;-63
2023/04/21 05:34:19;;;;;;;23.05;15.13;;;8.90;99.90;;;;;;7372640;19;20086;-63
2023/04/21 05:36:47;;;;;;;20.33;14.82;;;8.90;99.90;;;;;;7372295;19;20023;-63
2023/04/21 05:39:15;;;;;;;18.58;14.93;;;9.00;99.90;;;;;;7368432;19;20018;-63
2023/04/21 05:41:41;;;;;;;19.08;15.02;;;9.00;99.90;;;;;;7369767;19;20029;-63
2023/04/21 05:44:07;;;;;;;19.58;15.75;;;9.10;99.90;;;;;;7373146;19;20026;-63
2023/04/21 05:46:34;;;;;;;19.52;14.80;;;9.20;99.90;;;;;;7372026;19;20347;-63
2023/04/21 05:49:03;;;;;;;23.40;14.55;;;9.30;99.90;;;;;;7373756;19;20019;-63
2023/04/21 05:51:30;;;;;;;16.17;14.43;;;9.40;99.90;;;;;;7366385;19;20018;-64
2023/04/21 05:53:57;;;;;;;16.33;12.85;;;9.50;99.90;;;;;;7374897;19;20025;-63
2023/04/21 05:56:23;;;;;;;22.35;15.00;;;9.70;99.90;;;;;;7367587;19;20087;-65
2023/04/21 05:58:50;;;;;;;19.98;13.98;;;9.70;99.90;;;;;;7357576;19;22249;-66
2023/04/21 06:01:16;;;;;;;17.15;13.13;;;9.80;99.90;;;;;;7357079;19;20077;-66
2023/04/21 06:03:42;;;;;;;15.45;12.90;;;9.80;99.90;;;;;;7371484;19;20035;-66
2023/04/21 06:06:10;;;;;;;17.13;12.35;;;10.00;99.90;;;;;;7375013;19;20759;-63
2023/04/21 06:08:36;;;;;;;16.80;12.52;;;10.00;99.90;;;;;;7369645;19;20027;-65
2023/04/21 06:11:03;;;;;;;18.58;12.15;;;10.20;99.90;;;;;;7371408;19;20027;-66
2023/04/21 06:13:31;;;;;;;17.58;13.60;;;10.30;99.90;;;;;;7370854;19;20358;-66
2023/04/21 06:15:57;;;;;;;15.77;12.45;;;10.40;99.90;;;;;;7371277;19;20029;-64
2023/04/21 06:18:25;;;;;;;16.50;12.05;;;10.50;99.90;;;;;;7370459;19;20054;-63
2023/04/21 06:20:53;;;;;;;14.65;10.30;;;10.50;99.90;;;;;;7368467;19;20089;-63
2023/04/21 06:23:20;;;;;;;19.33;12.07;;;10.70;99.90;;;;;;7370435;19;20019;-63
2023/04/21 06:25:58;;;;;;;17.58;11.68;;;10.90;99.90;;;;;;7368794;19;20085;-65
2023/04/21 06:28:24;;;;;;;14.50;12.07;;;10.90;99.90;;;;;;7368971;19;20015;-66
2023/04/21 06:30:50;;;;;;;12.93;10.55;;;11.00;99.90;;;;;;7366634;19;20052;-66
2023/04/21 06:33:16;;;;;;;15.18;11.13;;;11.10;99.90;;;;;;7373272;19;20134;-66
2023/04/21 06:35:43;;;;;;;14.20;11.95;;;11.20;99.90;;;;;;7366738;19;20874;-63
2023/04/21 06:38:10;;;;;;;24.73;17.20;;;11.30;99.90;;;;;;7372028;19;22285;-64
2023/04/21 06:40:36;;;;;;;16.02;11.60;;;11.40;99.90;;;;;;7371050;19;20525;-63
2023/04/21 06:43:02;;;;;;;17.73;11.38;;;11.40;99.90;;;;;;7372404;19;20023;-63
2023/04/21 06:45:28;;;;;;;16.92;9.80;;;11.50;99.90;;;;;;7373030;19;20022;-65
2023/04/21 06:47:55;;;;;;;16.90;10.95;;;11.70;99.90;;;;;;7369681;19;20059;-62
2023/04/21 06:50:21;;;;;;;17.27;13.52;;;11.80;99.90;;;;;;7369394;19;20018;-63
2023/04/21 06:52:47;;;;;;;18.48;12.80;;;11.90;99.90;;;;;;7365144;19;20077;-63
2023/04/21 06:55:13;;;;;;;19.17;13.50;;;11.90;99.90;;;;;;7366982;19;20018;-63
2023/04/21 06:57:40;;;;;;;18.90;10.52;;;11.90;99.90;;;;;;7361042;19;20014;-64
2023/04/21 07:00:06;;;;;;;21.02;15.30;;;12.00;99.90;;;;;;7371391;19;20014;-63
2023/04/21 07:02:33;;;;;;;14.80;10.55;;;11.90;99.90;;;;;;7370053;19;20019;-63
2023/04/21 07:04:59;;;;;;;13.88;11.15;;;11.90;99.90;;;;;;7368096;19;20034;-63
2023/04/21 07:07:25;;;;;;;15.23;10.35;;;12.00;99.90;;;;;;7366326;19;20015;-63
2023/04/21 07:09:51;;;;;;;14.77;11.75;;;12.00;99.90;;;;;;7365901;19;20026;-63
2023/04/21 07:12:18;;;;;;;13.05;10.32;;;12.10;99.90;;;;;;7369913;19;20039;-65
2023/04/21 07:14:44;;;;;;;17.00;12.85;;;12.20;99.90;;;;;;7372045;19;20022;-66
2023/04/21 07:17:11;;;;;;;17.02;11.52;;;12.10;99.90;;;;;;7372946;19;20026;-62
2023/04/21 07:19:38;;;;;;;14.10;10.40;;;12.10;99.90;;;;;;7366740;19;20106;-62
2023/04/21 07:22:04;;;;;;;20.00;13.90;;;12.10;99.90;;;;;;7367148;19;20023;-64
2023/04/21 07:24:33;;;;;;;14.95;10.73;;;12.10;99.90;;;;;;7369211;19;20023;-64
2023/04/21 07:26:59;;;;;;;16.33;10.77;;;12.20;99.90;;;;;;7370971;19;20018;-65
2023/04/21 07:29:25;;;;;;;16.27;10.85;;;12.20;99.90;;;;;;7370620;19;20030;-63
2023/04/21 07:31:53;;;;;;;18.95;9.48;;;12.30;99.90;;;;;;7366558;19;20018;-64
2023/04/21 07:34:22;;;;;;;16.50;10.70;;;12.30;99.90;;;;;;7369411;19;20030;-65
2023/04/21 07:36:51;;;;;;;17.33;10.95;;;12.30;99.90;;;;;;7370891;19;20505;-65
2023/04/21 07:39:17;;;;;;;15.63;9.65;;;12.40;99.90;;;;;;7372404;19;20686;-65
2023/04/21 07:41:43;;;;;;;16.58;10.88;;;12.50;99.90;;;;;;7363808;19;20051;-64
2023/04/21 07:44:09;;;;;;;16.20;11.98;;;12.50;99.90;;;;;;7369102;19;20014;-64
2023/04/21 07:46:36;;;;;;;14.23;10.38;;;12.50;99.90;;;;;;7370494;19;20018;-65
2023/04/21 07:49:02;;;;;;;15.55;11.43;;;12.50;99.90;;;;;;7373255;19;20019;-68
2023/04/21 07:51:28;;;;;;;15.60;11.23;;;12.60;99.90;;;;;;7366273;19;20377;-62
2023/04/21 07:53:55;;;;;;;17.35;11.75;;;12.70;99.90;;;;;;7361941;19;20086;-66
2023/04/21 07:56:21;;;;;;;16.98;11.02;;;12.80;99.90;;;;;;7362813;19;20022;-67
2023/04/21 07:58:47;;;;;;;14.63;11.07;;;13.10;99.90;;;;;;7364193;19;20501;-64
2023/04/21 08:01:14;;;;;;;14.27;10.57;;;13.40;99.90;;;;;;7368807;19;20517;-64
2023/04/21 08:03:40;;;;;;;18.73;11.13;;;13.60;99.90;;;;;;7365672;19;20711;-66
2023/04/21 08:06:07;;;;;;;15.48;11.30;;;13.60;99.90;;;;;;7368862;19;20435;-62
2023/04/21 08:08:33;;;;;;;16.95;10.98;;;13.60;99.90;;;;;;7369077;19;20032;-67
2023/04/21 08:11:00;;;;;;;15.45;10.23;;;13.60;99.90;;;;;;7370120;19;20019;-68
2023/04/21 08:13:27;;;;;;;15.80;11.00;;;13.60;99.90;;;;;;7366032;19;20102;-68
2023/04/21 08:15:54;;;;;;;16.00;10.60;;;13.70;99.90;;;;;;7366275;19;20048;-68
2023/04/21 08:18:22;;;;;;;15.70;11.05;;;13.70;99.90;;;;;;7362965;19;20824;-65
2023/04/21 08:20:48;;;;;;;15.30;11.45;;;13.80;99.90;;;;;;7365236;19;20022;-65
2023/04/21 08:23:14;;;;;;;19.70;9.98;;;14.00;99.90;;;;;;7365723;19;20043;-67
2023/04/21 08:25:41;;;;;;;24.25;20.52;;;14.20;99.90;;;;;;7365525;19;20039;-62
2023/04/21 08:28:07;;;;;;;25.33;18.17;;;14.20;99.90;;;;;;7366653;19;20309;-71
2023/04/21 08:30:33;;;;;;;14.57;11.43;;;14.30;99.90;;;;;;7358770;19;20098;-69
2023/04/21 08:33:00;;;;;;;13.73;10.27;;;14.40;99.90;;;;;;7364826;19;20025;-64
2023/04/21 08:35:26;;;;;;;13.65;11.07;;;14.60;99.90;;;;;;7370297;19;20817;-65
2023/04/21 08:37:53;;;;;;;15.57;10.43;;;14.70;99.90;;;;;;7367983;19;20022;-66
2023/04/21 08:40:20;;;;;;;14.65;10.35;;;14.90;99.90;;;;;;7369817;19;20022;-64
2023/04/21 08:42:49;;;;;;;17.58;10.45;;;15.40;99.90;;;;;;7372862;19;20046;-66
2023/04/21 08:45:15;;;;;;;16.52;10.20;;;15.50;99.90;;;;;;7366361;19;20022;-67
2023/04/21 08:47:41;;;;;;;14.30;10.23;;;15.60;99.90;;;;;;7372411;19;20178;-65
2023/04/21 08:50:12;;;;;;;18.42;10.88;;;15.40;99.90;;;;;;7373336;19;20022;-65
2023/04/21 08:52:38;;;;;;;14.65;10.43;;;15.40;99.90;;;;;;7365686;19;20897;-73
2023/04/21 08:55:06;;;;;;;17.58;11.65;;;15.50;99.90;;;;;;7372302;19;20086;-73
2023/04/21 08:57:32;;;;;;;15.30;11.00;;;15.60;99.90;;;;;;7374599;19;20018;-73
2023/04/21 08:59:59;;;;;;;16.30;10.40;;;15.80;99.90;;;;;;7372226;19;20400;-64
2023/04/21 09:02:25;;;;;;;13.20;7.35;;;16.40;99.90;;;;;;7368248;19;20022;-64
2023/04/21 09:04:53;;;;;;;12.50;9.13;;;16.50;99.90;;;;;;7371518;19;20014;-62
2023/04/21 09:07:35;;;;;;;14.25;10.60;;;16.70;99.90;;;;;;7370693;19;20050;-63
2023/04/21 09:10:03;;;;;;;13.48;9.75;;;16.80;99.90;;;;;;7369991;19;20026;-63
2023/04/21 09:12:29;;;;;;;15.20;9.90;;;17.00;99.90;;;;;;7370959;19;20070;-63
2023/04/21 09:14:59;;;;;;;15.60;10.35;;;16.90;99.90;;;;;;7371084;19;20685;-63
2023/04/21 09:17:35;;;;;;;12.90;9.85;;;16.80;99.90;;;;;;7378384;19;20023;-63
2023/04/21 09:20:17;;;;;;;17.15;10.00;;;17.30;99.90;;;;;;7370490;19;20481;-64
2023/04/21 09:22:43;;;;;;;11.90;9.05;;;17.50;99.90;;;;;;7370087;19;20041;-63
2023/04/21 09:25:14;;;;;;;15.25;9.18;;;17.50;99.90;;;;;;7372854;19;20365;-64
2023/04/21 09:27:41;;;;;;;15.70;9.27;;;17.40;99.90;;;;;;7374758;19;20040;-64
2023/04/21 09:30:08;;;;;;;13.65;9.93;;;17.10;99.90;;;;;;7367453;19;20050;-64
2023/04/21 09:32:39;;;;;;;17.20;10.60;;;17.40;99.90;;;;;;7371894;19;20356;-64
2023/04/21 09:35:09;;;;;;;11.55;9.80;;;17.60;99.90;;;;;;7371613;19;20489;-64
2023/04/21 09:37:37;;;;;;;12.13;9.75;;;17.80;99.90;;;;;;7373587;19;20064;-64
2023/04/21 09:40:05;;;;;;;15.38;10.68;;;17.80;99.90;;;;;;7370108;19;20018;-64
2023/04/21 09:42:32;;;;;;;14.45;9.82;;;17.90;99.90;;;;;;7369969;19;20355;-64
2023/04/21 09:44:58;;;;;;;14.00;10.35;;;17.50;99.90;;;;;;7363525;19;21459;-64
2023/04/21 09:47:30;;;;;;;13.20;9.30;;;17.70;99.90;;;;;;7369128;19;20011;-64
2023/04/21 09:49:57;;;;;;;21.92;13.63;;;17.80;99.90;;;;;;7362779;19;20040;-64
2023/04/21 09:52:27;;;;;;;15.23;10.55;;;18.00;99.90;;;;;;7374155;19;20022;-65
2023/04/21 09:55:03;;;;;;;19.05;11.48;;;18.20;99.90;;;;;;7369827;19;20068;-65
2023/04/21 09:57:31;;;;;;;21.95;11.13;;;18.00;99.90;;;;;;7368599;19;20446;-64
2023/04/21 10:00:04;;;;;;;18.35;10.85;;;17.90;99.90;;;;;;7367986;19;20025;-64
2023/04/21 10:02:34;;;;;;;16.05;10.32;;;17.90;99.90;;;;;;7368940;19;20021;-64
2023/04/21 10:05:02;;;;;;;16.40;10.82;;;17.90;99.90;;;;;;7367703;19;20022;-64
2023/04/21 10:07:28;;;;;;;13.45;9.60;;;17.80;99.90;;;;;;7370266;19;20018;-70
2023/04/21 10:09:57;;;;;;;15.43;10.40;;;17.90;99.90;;;;;;7368928;19;20033;-64
2023/04/21 10:12:24;;;;;;;18.08;11.35;;;18.40;99.90;;;;;;7367945;19;20019;-64
2023/04/21 10:14:52;;;;;;;16.63;10.18;;;18.80;99.90;;;;;;7372599;19;20356;-65
2023/04/21 10:17:23;;;;;;;15.02;10.77;;;19.20;95.80;;;;;;7366578;19;20023;-65
2023/04/21 10:19:57;;;;;;;15.10;10.48;;;19.80;78.90;;;;;;7370907;19;20018;-65
2023/04/21 10:22:31;;;;;;;12.20;10.43;;;19.40;77.10;;;;;;7367957;19;20018;-65
2023/04/21 10:25:00;;;;;;;13.00;9.55;;;19.60;82.20;;;;;;7368647;19;20061;-65
2023/04/21 10:27:34;;;;;;;13.18;9.90;;;20.50;78.00;;;;;;7363779;19;20018;-65
2023/04/21 10:30:00;;;;;;;16.20;10.18;;;20.80;68.60;;;;;;7363845;19;20018;-65
2023/04/21 10:32:44;;;;;;;16.45;9.55;;;21.10;64.90;;;;;;7370728;19;20054;-65
2023/04/21 10:35:13;;;;;;;13.40;9.80;;;21.00;62.90;;;;;;7366390;19;20025;-65
2023/04/21 10:37:41;;;;;;;16.85;9.88;;;21.50;64.60;;;;;;7364920;19;20030;-65
2023/04/21 10:40:28;;;;;;;16.45;9.55;;;21.80;64.40;;;;;;7368843;19;20011;-65
2023/04/21 10:42:54;;;;;;;16.60;10.27;;;21.30;59.90;;;;;;7362184;19;20371;-61
2023/04/21 10:45:24;;;;;;;15.65;10.25;;;20.90;61.30;;;;;;7371719;19;20123;-65
2023/04/21 10:47:52;;;;;;;14.15;9.93;;;21.00;61.40;;;;;;7367359;19;20049;-65
2023/04/21 10:50:20;;;;;;;11.88;9.55;;;20.70;62.30;;;;;;7369324;19;20019;-67
2023/04/21 10:52:51;;;;;;;14.32;10.20;;;20.20;62.90;;;;;;7368104;19;20757;-65
2023/04/21 10:55:17;;;;;;;14.10;10.20;;;19.80;64.20;;;;;;7369376;19;20022;-63
2023/04/21 10:57:44;;;;;;;14.55;11.35;;;19.70;64.70;;;;;;7368526;19;20053;-64
2023/04/21 11:00:15;;;;;;;14.02;10.63;;;19.50;65.80;;;;;;7367572;19;20023;-65
2023/04/21 11:02:41;;;;;;;14.57;10.67;;;19.60;67.20;;;;;;7365128;19;20046;-66
2023/04/21 11:05:09;;;;;;;12.90;9.50;;;19.90;66.80;;;;;;7368284;19;20062;-64
2023/04/21 11:07:35;;;;;;;17.00;11.25;;;20.00;65.50;;;;;;7366365;19;20063;-64
2023/04/21 11:10:09;;;;;;;16.65;10.45;;;20.80;64.80;;;;;;7362954;19;20019;-65
2023/04/21 11:12:38;;;;;;;13.38;9.90;;;21.00;62.90;;;;;;7370661;19;20541;-65
2023/04/21 11:15:07;;;;;;;15.43;10.43;;;21.20;62.40;;;;;;7369132;19;20019;-64
2023/04/21 11:17:34;;;;;;;13.75;9.65;;;21.10;62.40;;;;;;7372200;19;20130;-64
2023/04/21 11:20:03;;;;;;;17.17;9.35;;;20.80;61.40;;;;;;7367217;19;20115;-64
2023/04/21 11:22:29;;;;;;;13.95;8.60;;;20.60;62.10;;;;;;7370795;19;20894;-64
2023/04/21 11:24:57;;;;;;;17.02;9.77;;;20.40;62.50;;;;;;7362930;19;20030;-64
2023/04/21 11:27:27;;;;;;;13.10;9.15;;;20.70;62.70;;;;;;7366785;19;20759;-64
2023/04/21 11:29:53;;;;;;;12.38;9.02;;;21.10;61.50;;;;;;7365507;19;20093;-64
2023/04/21 11:32:20;;;;;;;17.35;9.40;;;21.60;61.10;;;;;;7365609;19;20022;-64
2023/04/21 11:34:47;;;;;;;12.82;7.40;;;21.50;59.60;;;;;;7366081;19;20388;-65
2023/04/21 11:37:15;;;;;;;11.75;8.30;;;21.40;58.60;;;;;;7367401;19;20038;-64
2023/04/21 11:39:43;;;;;;;13.95;7.68;;;21.30;58.50;;;;;;7364797;19;20023;-66
2023/04/21 11:42:10;;;;;;;10.70;7.75;;;21.20;57.90;;;;;;7367520;19;20019;-65
2023/04/21 11:44:41;;;;;;;10.07;6.70;;;21.80;58.40;;;;;;7359206;19;21361;-65
2023/04/21 11:47:11;;;;;;;10.07;6.40;;;22.30;57.20;;;;;;7367054;19;20018;-65
2023/04/21 11:49:45;;;;;;;13.25;7.10;;;22.70;55.70;;;;;;7364068;19;20567;-65
2023/04/21 11:52:21;;;;;;;11.77;7.30;;;22.80;54.30;;;;;;7367259;19;20601;-65
2023/04/21 11:54:50;;;;;;;13.60;7.72;;;23.00;54.10;;;;;;7362840;19;20030;-65
2023/04/21 11:57:21;;;;;;;13.27;7.10;;;23.10;53.30;;;;;;7366986;19;20022;-65
2023/04/21 11:59:47;;;;;;;14.20;7.10;;;22.90;53.90;;;;;;7366937;19;20018;-65
2023/04/21 12:02:22;;;;;;;15.52;6.88;;;23.10;53.40;;;;;;7364885;19;20026;-65
2023/04/21 12:05:03;;;;;;;11.35;6.25;;;22.90;52.90;;;;;;7361862;19;20616;-64
2023/04/21 12:07:37;;;;;;;10.93;7.03;;;22.00;52.50;;;;;;7364319;19;20022;-65
2023/04/21 12:10:13;;;;;;;11.75;6.60;;;21.90;54.00;;;;;;7364405;19;20482;-64
2023/04/21 12:12:41;;;;;;;11.88;6.20;;;21.90;54.10;;;;;;7368751;19;20026;-65
2023/04/21 12:15:09;;;;;;;11.07;5.78;;;21.80;54.10;;;;;;7369415;19;20730;-67
2023/04/21 12:17:43;;;;;;;14.20;6.32;;;21.50;54.80;;;;;;7371866;19;20060;-66
2023/04/21 12:20:09;;;;;;;11.68;7.30;;;21.00;54.80;;;;;;7370495;19;22868;-66
2023/04/21 12:22:36;;;;;;;10.43;6.10;;;20.90;54.80;;;;;;7372970;19;20018;-67
2023/04/21 12:25:02;;;;;;;10.10;6.35;;;21.00;54.10;;;;;;7370629;19;20049;-65
2023/04/21 12:27:28;;;;;;;12.65;6.50;;;21.20;53.60;;;;;;7372600;19;20392;-64
2023/04/21 12:29:54;;;;;;;8.18;5.60;;;21.30;54.20;;;;;;7363595;19;20014;-65
2023/04/21 12:32:21;;;;;;;10.85;6.45;;;21.30;55.00;;;;;;7371642;19;20584;-65
2023/04/21 12:34:47;;;;;;;13.10;6.22;;;21.00;55.30;;;;;;7368128;19;20065;-67
2023/04/21 12:37:14;;;;;;;11.02;6.05;;;20.70;55.80;;;;;;7373220;19;20026;-66